createdAt,value
2022-09-27T00:01:06.920Z,77.10
2022-09-27T00:03:34.070Z,77.10
2022-09-27T00:06:25.396Z,77.00
2022-09-27T00:08:52.481Z,76.90
2022-09-27T00:11:32.363Z,76.80
2022-09-27T00:14:00.570Z,76.40
2022-09-27T00:16:30.352Z,75.80
2022-09-27T00:19:02.326Z,75.50
2022-09-27T00:21:30.901Z,75.60
2022-09-27T00:23:59.433Z,75.50
2022-09-27T00:26:27.519Z,75.70
2022-09-27T00:28:54.597Z,75.70
2022-09-27T00:31:29.582Z,75.60
2022-09-27T00:34:01.417Z,75.60
2022-09-27T00:36:30.350Z,75.60
2022-09-27T00:39:01.039Z,75.70
2022-09-27T00:41:32.173Z,76.00
2022-09-27T00:44:01.255Z,76.10
2022-09-27T00:46:37.358Z,76.40
2022-09-27T00:49:16.921Z,76.80
2022-09-27T00:51:46.608Z,76.90
2022-09-27T00:54:16.121Z,76.70
2022-09-27T00:56:45.166Z,76.80
2022-09-27T00:59:26.824Z,76.90
2022-09-27T01:01:53.928Z,76.90
2022-09-27T01:04:24.565Z,76.90
2022-09-27T01:06:53.106Z,77.10
2022-09-27T01:09:21.393Z,76.90
2022-09-27T01:11:51.156Z,77.10
2022-09-27T01:14:18.126Z,78.20
2022-09-27T01:16:51.091Z,77.60
2022-09-27T01:19:36.734Z,77.90
2022-09-27T01:22:15.185Z,77.10
2022-09-27T01:25:04.583Z,77.90
2022-09-27T01:27:41.075Z,78.20
2022-09-27T01:30:48.986Z,78.50
2022-09-27T01:33:48.190Z,78.60
2022-09-27T01:36:27.614Z,78.60
2022-09-27T01:39:02.953Z,78.50
2022-09-27T01:42:12.799Z,78.70
2022-09-27T01:44:47.791Z,78.80
2022-09-27T01:47:22.531Z,78.70
2022-09-27T01:50:06.366Z,78.90
2022-09-27T01:52:55.182Z,79.10
2022-09-27T01:55:30.175Z,79.30
2022-09-27T01:58:42.347Z,79.20
2022-09-27T02:01:10.775Z,79.60
2022-09-27T02:03:42.646Z,78.80
2022-09-27T02:06:48.016Z,79.40
2022-09-27T02:09:47.949Z,79.60
2022-09-27T02:12:24.806Z,79.50
2022-09-27T02:15:00.137Z,79.70
2022-09-27T02:17:36.620Z,79.90
2022-09-27T02:20:31.773Z,80.00
2022-09-27T02:23:15.087Z,79.90
2022-09-27T02:26:13.866Z,79.90
2022-09-27T02:28:43.596Z,79.90
2022-09-27T02:31:13.914Z,79.80
2022-09-27T02:33:56.418Z,79.40
2022-09-27T02:36:24.141Z,79.90
2022-09-27T02:38:51.400Z,79.80
2022-09-27T02:41:23.244Z,79.90
2022-09-27T02:43:55.714Z,80.00
2022-09-27T02:46:35.703Z,80.20
2022-09-27T02:49:23.363Z,80.30
2022-09-27T02:52:39.068Z,80.30
2022-09-27T02:55:12.326Z,80.30
2022-09-27T02:58:21.359Z,80.20
2022-09-27T03:01:33.109Z,80.40
2022-09-27T03:04:26.546Z,80.40
2022-09-27T03:06:56.043Z,80.60
2022-09-27T03:09:28.864Z,80.20
2022-09-27T03:11:55.903Z,80.20
2022-09-27T03:14:23.156Z,80.20
2022-09-27T03:17:07.385Z,80.20
2022-09-27T03:20:06.940Z,80.20
2022-09-27T03:22:57.674Z,80.40
2022-09-27T03:25:24.678Z,80.40
2022-09-27T03:27:51.905Z,80.70
2022-09-27T03:30:18.952Z,81.30
2022-09-27T03:32:46.699Z,81.60
2022-09-27T03:35:32.149Z,81.60
2022-09-27T03:37:59.580Z,81.50
2022-09-27T03:40:26.619Z,81.70
2022-09-27T03:42:53.736Z,81.70
2022-09-27T03:45:21.114Z,81.70
2022-09-27T03:47:48.204Z,81.80
2022-09-27T03:50:15.836Z,81.90
2022-09-27T03:52:43.974Z,82.00
2022-09-27T03:55:12.474Z,82.00
2022-09-27T03:57:40.292Z,82.10
2022-09-27T04:00:09.711Z,82.40
2022-09-27T04:02:39.737Z,82.50
2022-09-27T04:05:26.395Z,82.50
2022-09-27T04:07:57.493Z,82.70
2022-09-27T04:10:24.878Z,82.80
2022-09-27T04:12:52.253Z,83.60
2022-09-27T04:15:22.156Z,82.90
2022-09-27T04:17:49.957Z,82.90
2022-09-27T04:20:36.507Z,83.10
2022-09-27T04:23:13.347Z,83.20
2022-09-27T04:25:47.551Z,83.40
2022-09-27T04:28:38.048Z,83.60
2022-09-27T04:31:05.213Z,83.60
2022-09-27T04:33:50.547Z,83.50
2022-09-27T04:36:28.883Z,83.50
2022-09-27T04:39:11.361Z,83.50
2022-09-27T04:41:42.111Z,83.40
2022-09-27T04:44:09.047Z,83.80
2022-09-27T04:46:36.139Z,83.90
2022-09-27T04:49:03.384Z,83.80
2022-09-27T04:51:32.557Z,83.70
2022-09-27T04:54:00.704Z,83.70
2022-09-27T04:56:30.672Z,83.80
2022-09-27T04:58:58.707Z,84.00
2022-09-27T05:01:25.980Z,84.10
2022-09-27T05:03:55.772Z,84.20
2022-09-27T05:06:23.955Z,84.40
2022-09-27T05:08:51.085Z,84.30
2022-09-27T05:11:18.066Z,84.40
2022-09-27T05:14:05.713Z,84.30
2022-09-27T05:16:47.889Z,84.10
2022-09-27T05:19:51.093Z,84.20
2022-09-27T05:22:32.035Z,84.30
2022-09-27T05:24:59.735Z,84.70
2022-09-27T05:27:26.943Z,84.70
2022-09-27T05:29:54.583Z,84.60
2022-09-27T05:32:27.136Z,84.70
2022-09-27T05:35:14.763Z,84.40
2022-09-27T05:37:42.137Z,84.40
2022-09-27T05:40:29.366Z,84.70
2022-09-27T05:42:57.775Z,84.70
2022-09-27T05:45:25.632Z,84.60
2022-09-27T05:47:58.136Z,84.50
2022-09-27T05:50:27.469Z,84.80
2022-09-27T05:52:55.443Z,85.00
2022-09-27T05:55:23.652Z,84.90
2022-09-27T05:58:11.128Z,84.80
2022-09-27T06:00:44.262Z,84.90
2022-09-27T06:03:31.215Z,84.80
2022-09-27T06:06:16.883Z,84.70
2022-09-27T06:08:49.689Z,85.00
2022-09-27T06:11:19.374Z,85.50
2022-09-27T06:13:48.412Z,86.10
2022-09-27T06:16:15.524Z,86.30
2022-09-27T06:18:46.005Z,86.20
2022-09-27T06:21:13.640Z,86.30
2022-09-27T06:23:53.486Z,86.20
2022-09-27T06:26:29.564Z,85.60
2022-09-27T06:29:10.639Z,85.30
2022-09-27T06:31:43.002Z,85.50
2022-09-27T06:34:22.011Z,85.40
2022-09-27T06:36:51.506Z,85.40
2022-09-27T06:39:19.862Z,85.70
2022-09-27T06:42:02.213Z,85.90
2022-09-27T06:44:50.323Z,85.40
2022-09-27T06:47:36.408Z,85.30
2022-09-27T06:50:17.730Z,85.40
2022-09-27T06:52:49.468Z,85.60
2022-09-27T06:55:18.702Z,85.70
2022-09-27T06:58:05.165Z,85.90
2022-09-27T07:00:32.445Z,86.60
2022-09-27T07:03:05.186Z,86.40
2022-09-27T07:06:00.918Z,86.10
2022-09-27T07:08:43.984Z,85.80
2022-09-27T07:11:11.794Z,85.80
2022-09-27T07:13:42.962Z,86.60
2022-09-27T07:16:14.296Z,87.20
2022-09-27T07:18:43.196Z,86.90
2022-09-27T07:21:12.589Z,85.80
2022-09-27T07:23:39.845Z,84.70
2022-09-27T07:26:10.558Z,84.80
2022-09-27T07:28:38.213Z,85.00
2022-09-27T07:31:07.662Z,84.90
2022-09-27T07:33:34.987Z,85.20
2022-09-27T07:36:11.498Z,85.60
2022-09-27T07:38:41.450Z,85.40
2022-09-27T07:41:14.886Z,85.70
2022-09-27T07:43:46.556Z,85.90
2022-09-27T07:46:14.871Z,86.60
2022-09-27T07:49:07.126Z,87.60
2022-09-27T07:51:34.180Z,88.00
2022-09-27T07:54:08.894Z,88.30
2022-09-27T07:56:35.995Z,88.30
2022-09-27T07:59:04.859Z,88.00
2022-09-27T08:01:31.877Z,88.40
2022-09-27T08:03:58.916Z,88.30
2022-09-27T08:06:26.453Z,88.60
2022-09-27T08:08:55.453Z,88.60
2022-09-27T08:11:22.365Z,88.70
2022-09-27T08:13:52.727Z,88.80
2022-09-27T08:16:23.770Z,88.60
2022-09-27T08:19:11.567Z,88.20
2022-09-27T08:22:04.533Z,87.60
2022-09-27T08:24:42.605Z,87.00
2022-09-27T08:27:19.220Z,86.20
2022-09-27T08:29:49.692Z,85.30
2022-09-27T08:32:22.160Z,84.90
2022-09-27T08:34:50.280Z,84.30
2022-09-27T08:37:17.217Z,84.20
2022-09-27T08:39:47.739Z,84.10
2022-09-27T08:42:58.450Z,84.10
2022-09-27T08:45:32.858Z,84.00
2022-09-27T08:48:03.628Z,84.30
2022-09-27T08:50:39.746Z,84.00
2022-09-27T08:53:22.075Z,84.40
2022-09-27T08:55:58.979Z,84.90
2022-09-27T08:59:01.393Z,85.80
2022-09-27T09:01:34.446Z,86.30
2022-09-27T09:04:10.953Z,86.40
2022-09-27T09:06:43.298Z,86.60
2022-09-27T09:09:51.818Z,86.90
2022-09-27T09:12:47.223Z,86.90
2022-09-27T09:15:35.444Z,86.20
2022-09-27T09:18:04.958Z,85.90
2022-09-27T09:21:05.822Z,85.70
2022-09-27T09:23:38.867Z,85.20
2022-09-27T09:26:44.815Z,84.60
2022-09-27T09:29:20.792Z,85.10
2022-09-27T09:32:11.318Z,85.00
2022-09-27T09:34:43.399Z,85.40
2022-09-27T09:37:29.205Z,85.50
2022-09-27T09:40:22.065Z,86.40
2022-09-27T09:43:02.775Z,86.70
2022-09-27T09:45:43.163Z,86.20
2022-09-27T09:48:11.453Z,85.40
2022-09-27T09:50:51.949Z,86.00
2022-09-27T09:53:25.739Z,86.50
2022-09-27T09:55:58.489Z,86.30
2022-09-27T09:58:52.157Z,86.90
2022-09-27T10:01:37.767Z,87.10
2022-09-27T10:04:04.938Z,86.80
2022-09-27T10:06:32.560Z,86.30
2022-09-27T10:09:01.937Z,85.70
2022-09-27T10:11:44.043Z,85.00
2022-09-27T10:14:28.493Z,85.30
2022-09-27T10:17:04.853Z,86.60
2022-09-27T10:19:34.461Z,88.20
2022-09-27T10:22:32.637Z,90.00
2022-09-27T10:25:09.030Z,90.60
2022-09-27T10:27:49.583Z,90.30
2022-09-27T10:30:32.177Z,90.10
2022-09-27T10:33:07.887Z,89.80
2022-09-27T10:35:45.334Z,89.60
2022-09-27T10:38:27.376Z,89.30
2022-09-27T10:41:16.783Z,89.30
2022-09-27T10:43:44.368Z,88.70
2022-09-27T10:46:25.827Z,87.80
2022-09-27T10:49:08.574Z,87.20
2022-09-27T10:51:36.167Z,87.40
2022-09-27T10:54:04.145Z,86.80
2022-09-27T10:56:34.611Z,87.10
2022-09-27T10:59:04.233Z,86.90
2022-09-27T11:01:45.512Z,86.50
2022-09-27T11:04:37.947Z,85.80
2022-09-27T11:07:08.148Z,85.40
2022-09-27T11:09:50.029Z,85.20
2022-09-27T11:12:22.841Z,84.80
2022-09-27T11:15:02.652Z,83.90
2022-09-27T11:18:01.333Z,82.40
2022-09-27T11:20:39.061Z,82.00
2022-09-27T11:23:15.417Z,82.00
2022-09-27T11:26:04.382Z,80.90
2022-09-27T11:28:46.677Z,80.00
2022-09-27T11:31:25.086Z,79.50
2022-09-27T11:34:05.712Z,79.60
2022-09-27T11:37:06.130Z,79.50
2022-09-27T11:39:46.168Z,79.40
2022-09-27T11:42:35.639Z,79.20
2022-09-27T11:45:50.555Z,78.40
2022-09-27T11:48:39.549Z,77.80
2022-09-27T11:51:12.421Z,77.80
2022-09-27T11:53:52.222Z,78.10
2022-09-27T11:56:42.518Z,78.60
2022-09-27T11:59:34.194Z,80.00
2022-09-27T12:02:40.396Z,81.20
2022-09-27T12:05:34.314Z,82.30
2022-09-27T12:08:28.296Z,82.40
2022-09-27T12:11:09.152Z,80.70
2022-09-27T12:14:03.921Z,80.60
2022-09-27T12:16:32.168Z,81.20
2022-09-27T12:19:02.311Z,81.80
2022-09-27T12:22:02.233Z,81.60
2022-09-27T12:24:30.999Z,80.80
2022-09-27T12:27:41.526Z,78.70
2022-09-27T12:30:13.946Z,77.40
2022-09-27T12:32:59.788Z,79.50
2022-09-27T12:35:34.265Z,82.00
2022-09-27T12:38:06.344Z,81.20
2022-09-27T12:40:48.426Z,79.70
2022-09-27T12:43:31.923Z,79.40
2022-09-27T12:46:30.366Z,77.20
2022-09-27T12:49:15.750Z,76.80
2022-09-27T12:51:46.207Z,76.10
2022-09-27T12:54:13.338Z,76.30
2022-09-27T12:57:14.616Z,75.20
2022-09-27T13:00:03.113Z,74.40
2022-09-27T13:03:14.718Z,73.70
2022-09-27T13:06:04.475Z,74.20
2022-09-27T13:08:31.687Z,74.40
2022-09-27T13:11:06.144Z,74.80
2022-09-27T13:13:36.890Z,74.90
2022-09-27T13:16:08.755Z,74.80
2022-09-27T13:18:56.021Z,74.80
2022-09-27T13:21:42.076Z,74.80
2022-09-27T13:24:38.105Z,74.60
2022-09-27T13:27:27.857Z,75.00
2022-09-27T13:30:12.923Z,74.90
2022-09-27T13:33:14.089Z,74.50
2022-09-27T13:36:20.112Z,74.50
2022-09-27T13:38:55.607Z,74.60
2022-09-27T13:41:23.129Z,74.80
2022-09-27T13:44:07.332Z,75.00
2022-09-27T13:47:01.643Z,74.90
2022-09-27T13:49:50.006Z,75.60
2022-09-27T13:52:33.720Z,76.00
2022-09-27T13:55:42.963Z,76.60
2022-09-27T13:58:21.082Z,77.70
2022-09-27T14:00:51.435Z,77.80
2022-09-27T14:03:27.185Z,78.00
2022-09-27T14:05:58.424Z,77.80
2022-09-27T14:08:48.984Z,77.40
2022-09-27T14:11:27.744Z,77.00
2022-09-27T14:13:56.026Z,76.90
2022-09-27T14:16:33.882Z,77.20
2022-09-27T14:19:02.649Z,77.90
2022-09-27T14:21:37.781Z,78.40
2022-09-27T14:24:31.049Z,79.20
2022-09-27T14:27:17.385Z,79.50
2022-09-27T14:29:53.373Z,80.50
2022-09-27T14:32:32.323Z,81.00
2022-09-27T14:35:35.583Z,81.40
2022-09-27T14:38:26.520Z,81.90
2022-09-27T14:41:01.402Z,81.60
2022-09-27T14:43:30.305Z,83.00
2022-09-27T14:46:06.937Z,84.10
2022-09-27T14:48:40.154Z,84.20
2022-09-27T14:51:14.116Z,83.60
2022-09-27T14:53:57.206Z,82.40
2022-09-27T14:56:27.859Z,81.90
2022-09-27T14:59:05.730Z,80.90
2022-09-27T15:01:35.184Z,80.40
2022-09-27T15:04:07.906Z,80.40
2022-09-27T15:06:38.308Z,80.80
2022-09-27T15:09:07.283Z,80.80
2022-09-27T15:11:34.871Z,80.40
2022-09-27T15:14:03.947Z,81.20
2022-09-27T15:16:31.803Z,82.20
2022-09-27T15:19:02.549Z,83.40
2022-09-27T15:21:35.382Z,84.50
2022-09-27T15:24:03.149Z,90.10
2022-09-27T15:26:52.936Z,90.80
2022-09-27T15:29:23.054Z,90.20
2022-09-27T15:32:02.739Z,91.50
2022-09-27T15:34:34.782Z,92.20
2022-09-27T15:37:03.755Z,92.20
2022-09-27T15:39:39.922Z,92.20
2022-09-27T15:42:10.095Z,91.00
2022-09-27T15:44:43.111Z,88.10
2022-09-27T15:47:34.952Z,85.20
2022-09-27T15:50:17.157Z,87.20
2022-09-27T15:52:58.598Z,88.10
2022-09-27T15:55:27.325Z,88.20
2022-09-27T15:58:06.154Z,87.00
2022-09-27T16:00:33.390Z,82.80
2022-09-27T16:03:00.376Z,80.90
2022-09-27T16:05:28.468Z,80.80
2022-09-27T16:07:56.234Z,82.30
2022-09-27T16:10:29.575Z,82.80
2022-09-27T16:12:56.686Z,82.70
2022-09-27T16:15:23.751Z,82.90
2022-09-27T16:17:54.932Z,84.10
2022-09-27T16:20:25.546Z,84.60
2022-09-27T16:22:53.977Z,84.30
2022-09-27T16:25:24.851Z,82.70
2022-09-27T16:29:15.982Z,80.80
2022-09-27T16:31:50.190Z,78.40
2022-09-27T16:34:20.726Z,76.10
2022-09-27T16:36:52.311Z,75.50
2022-09-27T16:39:19.722Z,74.80
2022-09-27T16:41:47.012Z,74.60
2022-09-27T16:44:18.477Z,74.30
2022-09-27T16:46:48.153Z,74.20
2022-09-27T16:49:33.907Z,74.20
2022-09-27T16:52:01.011Z,74.20
2022-09-27T16:54:31.582Z,74.10
2022-09-27T16:56:59.714Z,73.90
2022-09-27T16:59:27.051Z,73.90
2022-09-27T17:01:58.105Z,73.90
2022-09-27T17:04:27.513Z,74.00
2022-09-27T17:06:55.330Z,73.80
2022-09-27T17:09:25.352Z,73.10
2022-09-27T17:11:54.220Z,72.80
2022-09-27T17:14:21.464Z,73.00
2022-09-27T17:16:49.489Z,73.00
2022-09-27T17:19:18.484Z,73.20
2022-09-27T17:21:46.303Z,73.20
2022-09-27T17:24:13.665Z,73.30
2022-09-27T17:26:41.157Z,73.40
2022-09-27T17:29:09.732Z,73.50
2022-09-27T17:31:39.930Z,73.70
2022-09-27T17:34:10.409Z,73.90
2022-09-27T17:36:41.597Z,74.00
2022-09-27T17:39:13.078Z,74.00
2022-09-27T17:41:40.363Z,74.30
2022-09-27T17:44:07.486Z,74.30
2022-09-27T17:46:36.455Z,74.50
2022-09-27T17:49:22.883Z,74.50
2022-09-27T17:51:52.204Z,74.50
2022-09-27T17:54:22.922Z,74.70
2022-09-27T17:56:51.246Z,74.90
2022-09-27T17:59:19.614Z,75.00
2022-09-27T18:01:47.951Z,75.10
2022-09-27T18:04:18.887Z,75.40
2022-09-27T18:06:47.611Z,75.70
2022-09-27T18:09:19.010Z,75.80
2022-09-27T18:11:45.945Z,76.00
2022-09-27T18:14:13.325Z,76.10
2022-09-27T18:16:43.103Z,77.00
2022-09-27T18:19:13.619Z,76.40
2022-09-27T18:21:40.723Z,76.50
2022-09-27T18:24:10.975Z,76.50
2022-09-27T18:26:39.006Z,76.80
2022-09-27T18:29:12.183Z,76.90
2022-09-27T18:31:47.422Z,77.10
2022-09-27T18:34:17.265Z,77.30
2022-09-27T18:36:45.014Z,77.50
2022-09-27T18:39:15.874Z,77.80
2022-09-27T18:41:43.149Z,78.30
2022-09-27T18:44:13.140Z,78.90
2022-09-27T18:46:40.260Z,79.40
2022-09-27T18:49:10.842Z,79.60
2022-09-27T18:51:42.041Z,79.80
2022-09-27T18:54:16.737Z,80.00
2022-09-27T18:56:44.118Z,80.30
2022-09-27T18:59:11.996Z,80.10
2022-09-27T19:01:43.293Z,80.30
2022-09-27T19:04:12.964Z,80.40
2022-09-27T19:06:40.614Z,80.40
2022-09-27T19:09:08.620Z,80.40
2022-09-27T19:11:35.686Z,80.40
2022-09-27T19:14:05.167Z,80.40
2022-09-27T19:16:32.493Z,80.50
2022-09-27T19:19:01.053Z,80.40
2022-09-27T19:21:29.668Z,80.50
2022-09-27T19:24:09.110Z,80.50
2022-09-27T19:26:36.142Z,80.50
2022-09-27T19:29:03.789Z,80.50
2022-09-27T19:31:30.910Z,80.50
2022-09-27T19:34:00.439Z,80.50
2022-09-27T19:36:28.452Z,80.40
2022-09-27T19:39:02.398Z,80.40
2022-09-27T19:41:29.730Z,80.40
2022-09-27T19:43:57.932Z,80.40
2022-09-27T19:46:25.804Z,80.50
2022-09-27T19:48:53.888Z,80.40
2022-09-27T19:51:23.142Z,80.40
2022-09-27T19:53:51.137Z,80.40
2022-09-27T19:56:20.260Z,80.40
2022-09-27T19:58:47.515Z,80.30
2022-09-27T20:01:19.088Z,80.30
2022-09-27T20:03:48.462Z,80.30
2022-09-27T20:06:19.801Z,80.20
2022-09-27T20:08:50.812Z,80.30
2022-09-27T20:11:33.494Z,80.30
2022-09-27T20:14:04.953Z,80.40
2022-09-27T20:16:58.609Z,80.40
2022-09-27T20:19:42.611Z,80.30
2022-09-27T20:25:15.971Z,80.10
2022-09-27T20:28:07.931Z,79.90
2022-09-27T20:30:36.308Z,80.10
2022-09-27T20:33:23.757Z,80.20
2022-09-27T20:35:54.151Z,80.50
2022-09-27T20:38:21.397Z,80.70
2022-09-27T20:40:56.018Z,81.00
2022-09-27T20:43:26.473Z,81.20
2022-09-27T20:45:59.561Z,81.20
2022-09-27T20:48:26.694Z,81.20
2022-09-27T20:51:01.299Z,81.20
2022-09-27T20:53:32.093Z,81.30
2022-09-27T20:56:02.768Z,81.20
2022-09-27T20:58:33.676Z,81.60
2022-09-27T21:01:07.769Z,81.80
2022-09-27T21:03:34.966Z,81.90
2022-09-27T21:06:02.511Z,81.90
2022-09-27T21:08:31.306Z,82.20
2022-09-27T21:11:11.094Z,82.30
2022-09-27T21:13:39.766Z,82.40
2022-09-27T21:16:14.337Z,82.30
2022-09-27T21:18:41.918Z,82.40
2022-09-27T21:21:11.451Z,82.50
2022-09-27T21:23:44.293Z,82.80
2022-09-27T21:26:13.076Z,82.90
2022-09-27T21:28:55.554Z,83.00
2022-09-27T21:31:28.063Z,83.00
2022-09-27T21:33:59.235Z,83.10
2022-09-27T21:36:44.387Z,83.10
2022-09-27T21:39:13.998Z,83.20
2022-09-27T21:41:41.583Z,83.00
2022-09-27T21:44:11.577Z,83.00
2022-09-27T21:46:42.228Z,83.10
2022-09-27T21:49:10.301Z,83.20
2022-09-27T21:51:39.852Z,83.00
2022-09-27T21:54:10.227Z,82.90
2022-09-27T21:56:39.399Z,83.10
2022-09-27T21:59:09.426Z,83.10
2022-09-27T22:01:36.544Z,83.10
2022-09-27T22:04:06.503Z,83.20
2022-09-27T22:06:36.412Z,83.10
2022-09-27T22:09:06.968Z,82.90
2022-09-27T22:11:37.846Z,82.90
2022-09-27T22:14:09.599Z,83.10
2022-09-27T22:16:37.555Z,83.50
2022-09-27T22:19:05.197Z,84.20
2022-09-27T22:21:35.364Z,84.70
2022-09-27T22:24:08.065Z,85.00
2022-09-27T22:26:36.255Z,85.10
2022-09-27T22:29:03.726Z,85.10
2022-09-27T22:31:30.922Z,85.10
2022-09-27T22:34:03.670Z,85.10
2022-09-27T22:36:31.889Z,85.10
2022-09-27T22:38:59.226Z,84.80
2022-09-27T22:41:26.415Z,84.40
2022-09-27T22:43:53.722Z,84.00
2022-09-27T22:46:22.153Z,83.80
2022-09-27T22:48:50.015Z,83.70
2022-09-27T22:51:18.469Z,83.70
2022-09-27T22:53:45.670Z,83.80
2022-09-27T22:56:18.269Z,83.80
2022-09-27T22:58:45.688Z,83.70
2022-09-27T23:01:23.805Z,83.80
2022-09-27T23:03:52.772Z,83.70
2022-09-27T23:06:21.241Z,83.80
2022-09-27T23:08:48.539Z,83.70
2022-09-27T23:11:18.746Z,83.60
2022-09-27T23:13:46.667Z,83.50
2022-09-27T23:16:20.170Z,83.30
2022-09-27T23:18:48.023Z,83.20
2022-09-27T23:21:16.216Z,82.90
2022-09-27T23:23:45.779Z,82.90
2022-09-27T23:26:14.892Z,82.90
2022-09-27T23:28:43.213Z,83.10
2022-09-27T23:31:11.686Z,83.40
2022-09-27T23:33:40.762Z,84.00
2022-09-27T23:36:09.711Z,84.60
2022-09-27T23:38:38.968Z,85.10
2022-09-27T23:41:07.193Z,85.20
2022-09-27T23:43:35.530Z,85.40
2022-09-27T23:46:03.631Z,85.20
2022-09-27T23:48:30.541Z,85.90
2022-09-27T23:50:57.598Z,84.80
2022-09-27T23:53:25.076Z,84.60
2022-09-27T23:56:10.895Z,84.60
2022-09-27T23:58:40.261Z,84.50
